sensor_id;sensor_type;location;lat;lon;timestamp;P1;durP1;ratioP1;P2;durP2;ratioP2
55013;SDS011;40916;51.632;5.552;2023-02-25T00:04:00;2.6;;;17.6;;
55013;SDS011;40916;51.632;5.552;2023-02-25T00:09:00;2.5;;;14.5;;
55013;SDS011;40916;51.632;5.552;2023-02-25T00:14:00;2.8;;;17.6;;
55013;SDS011;40916;51.632;5.552;2023-02-25T00:19:00;2.8;;;20.6;;
55013;SDS011;40916;51.632;5.552;2023-02-25T00:24:00;2.8;;;17.6;;
55013;SDS011;40916;51.632;5.552;2023-02-25T00:29:00;2.4;;;15.2;;
55013;SDS011;40916;51.632;5.552;2023-02-25T00:34:00;3.1;;;16.6;;
55013;SDS011;40916;51.632;5.552;2023-02-25T00:39:00;2.9;;;22.3;;
55013;SDS011;40916;51.632;5.552;2023-02-25T00:44:00;2.2;;;16.8;;
55013;SDS011;40916;51.632;5.552;2023-02-25T00:49:00;2.1;;;15.5;;
55013;SDS011;40916;51.632;5.552;2023-02-25T00:54:00;2.1;;;17.2;;
55013;SDS011;40916;51.632;5.552;2023-02-25T00:59:00;2.8;;;20;;
55013;SDS011;40916;51.632;5.552;2023-02-25T01:04:00;2;;;14.3;;
55013;SDS011;40916;51.632;5.552;2023-02-25T01:09:01;3;;;15.7;;
55013;SDS011;40916;51.632;5.552;2023-02-25T01:14:01;2.4;;;16.4;;
55013;SDS011;40916;51.632;5.552;2023-02-25T01:19:01;2.4;;;25.9;;
55013;SDS011;40916;51.632;5.552;2023-02-25T01:24:03;2.5;;;23.9;;
55013;SDS011;40916;51.632;5.552;2023-02-25T01:29:00;2.5;;;23.4;;
55013;SDS011;40916;51.632;5.552;2023-02-25T01:34:01;2.5;;;18.9;;
55013;SDS011;40916;51.632;5.552;2023-02-25T01:39:00;2.6;;;14.4;;
55013;SDS011;40916;51.632;5.552;2023-02-25T01:44:02;2.6;;;14.9;;
55013;SDS011;40916;51.632;5.552;2023-02-25T01:49:00;2.1;;;12.9;;
55013;SDS011;40916;51.632;5.552;2023-02-25T01:54:00;2.3;;;13.2;;
55013;SDS011;40916;51.632;5.552;2023-02-25T01:59:00;1.8;;;14.3;;
55013;SDS011;40916;51.632;5.552;2023-02-25T02:04:00;2.4;;;14.1;;
55013;SDS011;40916;51.632;5.552;2023-02-25T02:09:00;2.3;;;11.2;;
55013;SDS011;40916;51.632;5.552;2023-02-25T02:14:00;2.4;;;14.7;;
55013;SDS011;40916;51.632;5.552;2023-02-25T02:19:01;2.5;;;20;;
55013;SDS011;40916;51.632;5.552;2023-02-25T02:24:06;3.2;;;21.4;;
55013;SDS011;40916;51.632;5.552;2023-02-25T02:29:09;2;;;16.5;;
55013;SDS011;40916;51.632;5.552;2023-02-25T02:34:04;2.3;;;21.4;;
55013;SDS011;40916;51.632;5.552;2023-02-25T02:39:02;2;;;15.4;;
55013;SDS011;40916;51.632;5.552;2023-02-25T02:44:01;2.3;;;14.5;;
55013;SDS011;40916;51.632;5.552;2023-02-25T02:49:01;2.6;;;19.1;;
55013;SDS011;40916;51.632;5.552;2023-02-25T02:54:00;2.4;;;15.8;;
55013;SDS011;40916;51.632;5.552;2023-02-25T02:59:01;3.1;;;25.6;;
55013;SDS011;40916;51.632;5.552;2023-02-25T03:04:00;2.1;;;13.8;;
55013;SDS011;40916;51.632;5.552;2023-02-25T03:09:02;1.8;;;9.3;;
55013;SDS011;40916;51.632;5.552;2023-02-25T03:14:00;2.3;;;16.1;;
55013;SDS011;40916;51.632;5.552;2023-02-25T03:19:00;3.8;;;23.7;;
55013;SDS011;40916;51.632;5.552;2023-02-25T03:24:00;2.8;;;17.7;;
55013;SDS011;40916;51.632;5.552;2023-02-25T03:29:00;2.6;;;19;;
55013;SDS011;40916;51.632;5.552;2023-02-25T03:34:00;3;;;16.4;;
55013;SDS011;40916;51.632;5.552;2023-02-25T03:39:02;2.7;;;18.8;;
55013;SDS011;40916;51.632;5.552;2023-02-25T03:44:00;3.3;;;22.6;;
55013;SDS011;40916;51.632;5.552;2023-02-25T03:49:00;3;;;16.4;;
55013;SDS011;40916;51.632;5.552;2023-02-25T03:54:00;2.6;;;20.1;;
55013;SDS011;40916;51.632;5.552;2023-02-25T03:59:00;2.6;;;15;;
55013;SDS011;40916;51.632;5.552;2023-02-25T04:04:00;3.6;;;26.3;;
55013;SDS011;40916;51.632;5.552;2023-02-25T04:09:00;2.8;;;21.9;;
55013;SDS011;40916;51.632;5.552;2023-02-25T04:13:59;2.9;;;27.3;;
55013;SDS011;40916;51.632;5.552;2023-02-25T04:18:59;3.7;;;27.7;;
55013;SDS011;40916;51.632;5.552;2023-02-25T04:24:00;3.4;;;18.7;;
55013;SDS011;40916;51.632;5.552;2023-02-25T04:29:00;3.3;;;21.3;;
55013;SDS011;40916;51.632;5.552;2023-02-25T04:34:00;2.6;;;23.8;;
55013;SDS011;40916;51.632;5.552;2023-02-25T04:39:00;4.5;;;28.9;;
55013;SDS011;40916;51.632;5.552;2023-02-25T04:44:00;3.6;;;30.4;;
55013;SDS011;40916;51.632;5.552;2023-02-25T04:49:00;3.2;;;19.6;;
55013;SDS011;40916;51.632;5.552;2023-02-25T04:54:00;3.3;;;22;;
55013;SDS011;40916;51.632;5.552;2023-02-25T04:58:59;2.7;;;21.1;;
55013;SDS011;40916;51.632;5.552;2023-02-25T05:03:59;4;;;27;;
55013;SDS011;40916;51.632;5.552;2023-02-25T05:08:59;3.5;;;30.2;;
55013;SDS011;40916;51.632;5.552;2023-02-25T05:13:59;3.2;;;27.4;;
55013;SDS011;40916;51.632;5.552;2023-02-25T05:18:59;3.6;;;18.7;;
55013;SDS011;40916;51.632;5.552;2023-02-25T05:23:59;3.3;;;21.8;;
55013;SDS011;40916;51.632;5.552;2023-02-25T05:28:59;3.1;;;19.6;;
55013;SDS011;40916;51.632;5.552;2023-02-25T05:34:00;2.9;;;20.9;;
55013;SDS011;40916;51.632;5.552;2023-02-25T05:38:59;3.1;;;20.7;;
55013;SDS011;40916;51.632;5.552;2023-02-25T05:43:59;5;;;36.6;;
55013;SDS011;40916;51.632;5.552;2023-02-25T05:48:59;3;;;21;;
55013;SDS011;40916;51.632;5.552;2023-02-25T05:53:59;3.1;;;19.3;;
55013;SDS011;40916;51.632;5.552;2023-02-25T05:58:59;2.4;;;18.8;;
55013;SDS011;40916;51.632;5.552;2023-02-25T06:03:59;4.7;;;23.2;;
55013;SDS011;40916;51.632;5.552;2023-02-25T06:08:59;3.8;;;28.6;;
55013;SDS011;40916;51.632;5.552;2023-02-25T06:13:59;2.9;;;18.4;;
55013;SDS011;40916;51.632;5.552;2023-02-25T06:19:00;2.5;;;18.4;;
55013;SDS011;40916;51.632;5.552;2023-02-25T06:24:00;3.2;;;18.3;;
55013;SDS011;40916;51.632;5.552;2023-02-25T06:28:59;2.9;;;27.3;;
55013;SDS011;40916;51.632;5.552;2023-02-25T06:33:59;3;;;27;;
55013;SDS011;40916;51.632;5.552;2023-02-25T06:38:59;2.9;;;17.9;;
55013;SDS011;40916;51.632;5.552;2023-02-25T06:43:59;2.7;;;23.4;;
55013;SDS011;40916;51.632;5.552;2023-02-25T06:48:59;2.8;;;17;;
55013;SDS011;40916;51.632;5.552;2023-02-25T06:54:00;2.4;;;22.2;;
55013;SDS011;40916;51.632;5.552;2023-02-25T06:58:59;3;;;17.6;;
55013;SDS011;40916;51.632;5.552;2023-02-25T07:03:59;2.6;;;16.9;;
55013;SDS011;40916;51.632;5.552;2023-02-25T07:08:59;3.5;;;29.3;;
55013;SDS011;40916;51.632;5.552;2023-02-25T07:13:59;2.6;;;23;;
55013;SDS011;40916;51.632;5.552;2023-02-25T07:18:59;3.1;;;24.4;;
55013;SDS011;40916;51.632;5.552;2023-02-25T07:23:59;3.2;;;20.6;;
55013;SDS011;40916;51.632;5.552;2023-02-25T07:28:59;2.9;;;17.6;;
55013;SDS011;40916;51.632;5.552;2023-02-25T07:33:59;3.7;;;29.3;;
55013;SDS011;40916;51.632;5.552;2023-02-25T07:39:00;2.8;;;12.9;;
55013;SDS011;40916;51.632;5.552;2023-02-25T07:43:59;2.1;;;23.3;;
55013;SDS011;40916;51.632;5.552;2023-02-25T07:48:59;3.5;;;25.8;;
55013;SDS011;40916;51.632;5.552;2023-02-25T07:53:59;4.1;;;26.2;;
55013;SDS011;40916;51.632;5.552;2023-02-25T07:58:59;3.2;;;22.5;;
55013;SDS011;40916;51.632;5.552;2023-02-25T08:04:00;2.9;;;19.9;;
55013;SDS011;40916;51.632;5.552;2023-02-25T08:08:59;3.3;;;20.8;;
55013;SDS011;40916;51.632;5.552;2023-02-25T08:13:59;3.5;;;21.9;;
55013;SDS011;40916;51.632;5.552;2023-02-25T08:18:59;3.7;;;21.4;;
55013;SDS011;40916;51.632;5.552;2023-02-25T08:23:59;2.4;;;18.3;;
55013;SDS011;40916;51.632;5.552;2023-02-25T08:28:59;1.9;;;14;;
55013;SDS011;40916;51.632;5.552;2023-02-25T08:33:59;2.2;;;14.8;;
55013;SDS011;40916;51.632;5.552;2023-02-25T08:38:59;2.7;;;13.6;;
55013;SDS011;40916;51.632;5.552;2023-02-25T08:43:59;2.3;;;13.5;;
55013;SDS011;40916;51.632;5.552;2023-02-25T08:48:59;3.5;;;18.5;;
55013;SDS011;40916;51.632;5.552;2023-02-25T08:54:00;3.1;;;22.5;;
55013;SDS011;40916;51.632;5.552;2023-02-25T08:58:59;2.8;;;14.2;;
55013;SDS011;40916;51.632;5.552;2023-02-25T09:03:59;3.6;;;20.1;;
55013;SDS011;40916;51.632;5.552;2023-02-25T09:08:59;4.1;;;26.9;;
55013;SDS011;40916;51.632;5.552;2023-02-25T09:13:59;3;;;24.3;;
55013;SDS011;40916;51.632;5.552;2023-02-25T09:18:59;3.3;;;23.2;;
55013;SDS011;40916;51.632;5.552;2023-02-25T09:23:59;3.8;;;25.3;;
55013;SDS011;40916;51.632;5.552;2023-02-25T09:28:59;3.9;;;24.5;;
55013;SDS011;40916;51.632;5.552;2023-02-25T09:33:59;3.7;;;24.1;;
55013;SDS011;40916;51.632;5.552;2023-02-25T09:38:59;3.6;;;29.3;;
55013;SDS011;40916;51.632;5.552;2023-02-25T09:44:01;3.8;;;21.8;;
55013;SDS011;40916;51.632;5.552;2023-02-25T09:49:01;3;;;21.5;;
55013;SDS011;40916;51.632;5.552;2023-02-25T09:54:01;2.6;;;12.5;;
55013;SDS011;40916;51.632;5.552;2023-02-25T09:58:59;2.5;;;16.1;;
55013;SDS011;40916;51.632;5.552;2023-02-25T10:04:01;2.7;;;17;;
55013;SDS011;40916;51.632;5.552;2023-02-25T10:09:01;2.1;;;13.9;;
55013;SDS011;40916;51.632;5.552;2023-02-25T10:14:01;2;;;14.5;;
55013;SDS011;40916;51.632;5.552;2023-02-25T10:19:02;1.8;;;10.3;;
55013;SDS011;40916;51.632;5.552;2023-02-25T10:24:04;2.1;;;14.7;;
55013;SDS011;40916;51.632;5.552;2023-02-25T10:29:00;1.9;;;13.7;;
55013;SDS011;40916;51.632;5.552;2023-02-25T10:34:00;1.5;;;7.6;;
55013;SDS011;40916;51.632;5.552;2023-02-25T10:38:59;1.2;;;4.3;;
55013;SDS011;40916;51.632;5.552;2023-02-25T10:43:59;1.9;;;12.4;;
55013;SDS011;40916;51.632;5.552;2023-02-25T10:49:00;2.1;;;7.8;;
55013;SDS011;40916;51.632;5.552;2023-02-25T10:54:00;1.6;;;7.4;;
55013;SDS011;40916;51.632;5.552;2023-02-25T10:59:00;1.5;;;10.3;;
55013;SDS011;40916;51.632;5.552;2023-02-25T11:04:00;1.5;;;7.2;;
55013;SDS011;40916;51.632;5.552;2023-02-25T11:09:00;1.4;;;10.8;;
55013;SDS011;40916;51.632;5.552;2023-02-25T11:14:01;1.2;;;6.2;;
55013;SDS011;40916;51.632;5.552;2023-02-25T11:19:00;2.5;;;8.2;;
55013;SDS011;40916;51.632;5.552;2023-02-25T11:24:00;1.8;;;9.7;;
55013;SDS011;40916;51.632;5.552;2023-02-25T11:28:59;1.5;;;8.4;;
55013;SDS011;40916;51.632;5.552;2023-02-25T11:33:59;1.7;;;9;;
55013;SDS011;40916;51.632;5.552;2023-02-25T11:39:04;1.6;;;9.1;;
55013;SDS011;40916;51.632;5.552;2023-02-25T11:44:06;1.9;;;10;;
55013;SDS011;40916;51.632;5.552;2023-02-25T11:49:01;1.4;;;8.5;;
55013;SDS011;40916;51.632;5.552;2023-02-25T11:54:31;1.9;;;6.8;;
55013;SDS011;40916;51.632;5.552;2023-02-25T11:59:04;1.7;;;11.9;;
55013;SDS011;40916;51.632;5.552;2023-02-25T12:04:05;1.3;;;7.3;;
55013;SDS011;40916;51.632;5.552;2023-02-25T12:09:12;1.6;;;12.4;;
55013;SDS011;40916;51.632;5.552;2023-02-25T12:19:19;1.5;;;6.6;;
55013;SDS011;40916;51.632;5.552;2023-02-25T12:25:03;1.6;;;8.4;;
55013;SDS011;40916;51.632;5.552;2023-02-25T12:29:02;1.8;;;10;;
55013;SDS011;40916;51.632;5.552;2023-02-25T12:34:05;2.1;;;15.2;;
55013;SDS011;40916;51.632;5.552;2023-02-25T12:39:04;1.9;;;11.5;;
55013;SDS011;40916;51.632;5.552;2023-02-25T12:44:03;1.3;;;9.8;;
55013;SDS011;40916;51.632;5.552;2023-02-25T12:49:18;1.7;;;5.9;;
55013;SDS011;40916;51.632;5.552;2023-02-25T12:54:01;2.7;;;12.5;;
55013;SDS011;40916;51.632;5.552;2023-02-25T12:59:06;2.6;;;13.9;;
55013;SDS011;40916;51.632;5.552;2023-02-25T13:04:06;2.5;;;10.3;;
55013;SDS011;40916;51.632;5.552;2023-02-25T13:09:03;2.3;;;14;;
55013;SDS011;40916;51.632;5.552;2023-02-25T13:14:02;2;;;10.1;;
55013;SDS011;40916;51.632;5.552;2023-02-25T13:19:04;1.7;;;8;;
55013;SDS011;40916;51.632;5.552;2023-02-25T13:24:04;1.9;;;10.5;;
55013;SDS011;40916;51.632;5.552;2023-02-25T13:29:02;2;;;10.2;;
55013;SDS011;40916;51.632;5.552;2023-02-25T13:34:02;1.8;;;6.3;;
55013;SDS011;40916;51.632;5.552;2023-02-25T13:39:02;1.5;;;7.2;;
55013;SDS011;40916;51.632;5.552;2023-02-25T13:44:33;1.7;;;12.9;;
55013;SDS011;40916;51.632;5.552;2023-02-25T13:49:02;1.6;;;7.2;;
55013;SDS011;40916;51.632;5.552;2023-02-25T13:59:01;1.4;;;7.1;;
55013;SDS011;40916;51.632;5.552;2023-02-25T14:04:06;1.6;;;8.7;;
55013;SDS011;40916;51.632;5.552;2023-02-25T14:09:02;2.5;;;7.5;;
55013;SDS011;40916;51.632;5.552;2023-02-25T14:14:04;2.4;;;11.5;;
55013;SDS011;40916;51.632;5.552;2023-02-25T14:19:03;1.5;;;7.6;;
55013;SDS011;40916;51.632;5.552;2023-02-25T14:24:00;2.3;;;16.4;;
55013;SDS011;40916;51.632;5.552;2023-02-25T14:29:02;1.7;;;8.3;;
55013;SDS011;40916;51.632;5.552;2023-02-25T14:34:03;2.1;;;9.1;;
55013;SDS011;40916;51.632;5.552;2023-02-25T14:39:02;1.8;;;12.1;;
55013;SDS011;40916;51.632;5.552;2023-02-25T14:44:00;1.4;;;6.7;;
55013;SDS011;40916;51.632;5.552;2023-02-25T14:48:59;1.9;;;8.2;;
55013;SDS011;40916;51.632;5.552;2023-02-25T14:54:03;2.4;;;9.1;;
55013;SDS011;40916;51.632;5.552;2023-02-25T14:59:11;1.6;;;6.7;;
55013;SDS011;40916;51.632;5.552;2023-02-25T15:04:04;1.7;;;9.7;;
55013;SDS011;40916;51.632;5.552;2023-02-25T15:09:05;1.8;;;7;;
55013;SDS011;40916;51.632;5.552;2023-02-25T15:14:09;1.5;;;6.9;;
55013;SDS011;40916;51.632;5.552;2023-02-25T15:19:19;1.6;;;6.4;;
55013;SDS011;40916;51.632;5.552;2023-02-25T15:23:59;1.9;;;8.6;;
55013;SDS011;40916;51.632;5.552;2023-02-25T15:28:59;1.6;;;7.2;;
55013;SDS011;40916;51.632;5.552;2023-02-25T15:35:03;1.4;;;6.3;;
55013;SDS011;40916;51.632;5.552;2023-02-25T15:38:59;1.2;;;5.3;;
55013;SDS011;40916;51.632;5.552;2023-02-25T15:43:59;1.8;;;7.1;;
55013;SDS011;40916;51.632;5.552;2023-02-25T15:49:03;2;;;11.7;;
55013;SDS011;40916;51.632;5.552;2023-02-25T15:53:59;1.9;;;9;;
55013;SDS011;40916;51.632;5.552;2023-02-25T15:58:59;1.6;;;7.9;;
55013;SDS011;40916;51.632;5.552;2023-02-25T16:03:59;1.6;;;6.2;;
55013;SDS011;40916;51.632;5.552;2023-02-25T16:09:00;1.6;;;9.2;;
55013;SDS011;40916;51.632;5.552;2023-02-25T16:13:59;1.4;;;8.5;;
55013;SDS011;40916;51.632;5.552;2023-02-25T16:18:59;1.2;;;8;;
55013;SDS011;40916;51.632;5.552;2023-02-25T16:23:59;1.4;;;7.5;;
55013;SDS011;40916;51.632;5.552;2023-02-25T16:29:01;1.3;;;7.7;;
55013;SDS011;40916;51.632;5.552;2023-02-25T16:34:00;1.1;;;5;;
55013;SDS011;40916;51.632;5.552;2023-02-25T16:39:00;1.4;;;11.2;;
55013;SDS011;40916;51.632;5.552;2023-02-25T16:43:59;1.3;;;5.6;;
55013;SDS011;40916;51.632;5.552;2023-02-25T16:48:59;1.4;;;5.8;;
55013;SDS011;40916;51.632;5.552;2023-02-25T16:54:02;1.6;;;9.2;;
55013;SDS011;40916;51.632;5.552;2023-02-25T16:59:00;1.7;;;8.3;;
55013;SDS011;40916;51.632;5.552;2023-02-25T17:03:59;1.4;;;4.4;;
55013;SDS011;40916;51.632;5.552;2023-02-25T17:08:59;1.7;;;5.9;;
55013;SDS011;40916;51.632;5.552;2023-02-25T17:14:00;2.5;;;11.1;;
55013;SDS011;40916;51.632;5.552;2023-02-25T17:18:59;1.5;;;9.5;;
55013;SDS011;40916;51.632;5.552;2023-02-25T17:23:59;1.5;;;6.7;;
55013;SDS011;40916;51.632;5.552;2023-02-25T17:28:59;1.5;;;6.9;;
55013;SDS011;40916;51.632;5.552;2023-02-25T17:33:59;1.5;;;10.2;;
55013;SDS011;40916;51.632;5.552;2023-02-25T17:39:00;2.1;;;12.4;;
55013;SDS011;40916;51.632;5.552;2023-02-25T17:43:59;1.4;;;7.4;;
55013;SDS011;40916;51.632;5.552;2023-02-25T17:48:59;1.8;;;7.9;;
55013;SDS011;40916;51.632;5.552;2023-02-25T17:53:59;2.4;;;9.7;;
55013;SDS011;40916;51.632;5.552;2023-02-25T17:58:59;2.1;;;9.7;;
55013;SDS011;40916;51.632;5.552;2023-02-25T18:03:59;1.7;;;7;;
55013;SDS011;40916;51.632;5.552;2023-02-25T18:08:59;1.8;;;10.4;;
55013;SDS011;40916;51.632;5.552;2023-02-25T18:13:59;1.7;;;7.6;;
55013;SDS011;40916;51.632;5.552;2023-02-25T18:18:58;2;;;10;;
55013;SDS011;40916;51.632;5.552;2023-02-25T18:23:59;2;;;11.9;;
55013;SDS011;40916;51.632;5.552;2023-02-25T18:28:59;1.7;;;8.2;;
55013;SDS011;40916;51.632;5.552;2023-02-25T18:33:59;1.6;;;7.1;;
55013;SDS011;40916;51.632;5.552;2023-02-25T18:38:59;2.1;;;12.1;;
55013;SDS011;40916;51.632;5.552;2023-02-25T18:43:58;3.1;;;14.5;;
55013;SDS011;40916;51.632;5.552;2023-02-25T18:48:58;2.5;;;17.1;;
55013;SDS011;40916;51.632;5.552;2023-02-25T18:53:58;2.3;;;9.1;;
55013;SDS011;40916;51.632;5.552;2023-02-25T18:58:58;2;;;12.5;;
55013;SDS011;40916;51.632;5.552;2023-02-25T19:03:58;1.9;;;10.7;;
55013;SDS011;40916;51.632;5.552;2023-02-25T19:08:58;2;;;14.4;;
55013;SDS011;40916;51.632;5.552;2023-02-25T19:13:58;2.4;;;11.7;;
55013;SDS011;40916;51.632;5.552;2023-02-25T19:18:58;2;;;11;;
55013;SDS011;40916;51.632;5.552;2023-02-25T19:23:58;2.1;;;8.5;;
55013;SDS011;40916;51.632;5.552;2023-02-25T19:28:58;2;;;7.8;;
55013;SDS011;40916;51.632;5.552;2023-02-25T19:33:58;2.3;;;12.2;;
55013;SDS011;40916;51.632;5.552;2023-02-25T19:38:58;2.6;;;10.4;;
55013;SDS011;40916;51.632;5.552;2023-02-25T19:43:58;2.3;;;9.5;;
55013;SDS011;40916;51.632;5.552;2023-02-25T19:48:58;2.1;;;9.2;;
55013;SDS011;40916;51.632;5.552;2023-02-25T19:53:58;2.8;;;12.2;;
55013;SDS011;40916;51.632;5.552;2023-02-25T19:58:58;2.8;;;11.4;;
55013;SDS011;40916;51.632;5.552;2023-02-25T20:03:58;2.3;;;8.5;;
55013;SDS011;40916;51.632;5.552;2023-02-25T20:08:59;2.3;;;6.4;;
55013;SDS011;40916;51.632;5.552;2023-02-25T20:13:58;2.5;;;8.3;;
55013;SDS011;40916;51.632;5.552;2023-02-25T20:18:58;3.4;;;17.2;;
55013;SDS011;40916;51.632;5.552;2023-02-25T20:23:59;3.4;;;13.5;;
55013;SDS011;40916;51.632;5.552;2023-02-25T20:28:59;3.3;;;15.9;;
55013;SDS011;40916;51.632;5.552;2023-02-25T20:33:58;2.4;;;11;;
55013;SDS011;40916;51.632;5.552;2023-02-25T20:39:02;2.5;;;12.2;;
55013;SDS011;40916;51.632;5.552;2023-02-25T20:43:58;2.9;;;11.5;;
55013;SDS011;40916;51.632;5.552;2023-02-25T20:48:58;5.2;;;17.8;;
55013;SDS011;40916;51.632;5.552;2023-02-25T20:53:59;5.5;;;15.9;;
55013;SDS011;40916;51.632;5.552;2023-02-25T20:58:58;4.2;;;18.9;;
55013;SDS011;40916;51.632;5.552;2023-02-25T21:03:58;3.1;;;14.6;;
55013;SDS011;40916;51.632;5.552;2023-02-25T21:08:58;4.1;;;18.4;;
55013;SDS011;40916;51.632;5.552;2023-02-25T21:13:58;3.2;;;13.5;;
55013;SDS011;40916;51.632;5.552;2023-02-25T21:18:58;3.3;;;15.3;;
55013;SDS011;40916;51.632;5.552;2023-02-25T21:23:58;4.1;;;14.3;;
55013;SDS011;40916;51.632;5.552;2023-02-25T21:28:58;4.5;;;17.9;;
55013;SDS011;40916;51.632;5.552;2023-02-25T21:33:58;3.2;;;9.9;;
55013;SDS011;40916;51.632;5.552;2023-02-25T21:38:58;3.4;;;12.3;;
55013;SDS011;40916;51.632;5.552;2023-02-25T21:43:58;3.3;;;13.7;;
55013;SDS011;40916;51.632;5.552;2023-02-25T21:48:58;3.9;;;11.4;;
55013;SDS011;40916;51.632;5.552;2023-02-25T21:53:59;3.2;;;12.8;;
55013;SDS011;40916;51.632;5.552;2023-02-25T21:58:59;2.9;;;12.1;;
55013;SDS011;40916;51.632;5.552;2023-02-25T22:03:58;3.4;;;13.8;;
55013;SDS011;40916;51.632;5.552;2023-02-25T22:08:58;3.8;;;14.5;;
55013;SDS011;40916;51.632;5.552;2023-02-25T22:13:59;3.2;;;10.4;;
55013;SDS011;40916;51.632;5.552;2023-02-25T22:18:58;3.3;;;8.3;;
55013;SDS011;40916;51.632;5.552;2023-02-25T22:24:00;3.7;;;14.1;;
55013;SDS011;40916;51.632;5.552;2023-02-25T22:28:59;3.6;;;8.8;;
55013;SDS011;40916;51.632;5.552;2023-02-25T22:33:58;3.3;;;10.1;;
55013;SDS011;40916;51.632;5.552;2023-02-25T22:38:58;4.9;;;19.4;;
55013;SDS011;40916;51.632;5.552;2023-02-25T22:43:58;3.7;;;12.8;;
55013;SDS011;40916;51.632;5.552;2023-02-25T22:48:58;3.5;;;14;;
55013;SDS011;40916;51.632;5.552;2023-02-25T22:53:58;3.5;;;14;;
55013;SDS011;40916;51.632;5.552;2023-02-25T22:58:58;3.3;;;10.4;;
55013;SDS011;40916;51.632;5.552;2023-02-25T23:03:58;3.9;;;15.4;;
55013;SDS011;40916;51.632;5.552;2023-02-25T23:08:58;5.7;;;13.5;;
55013;SDS011;40916;51.632;5.552;2023-02-25T23:13:59;4.9;;;16.9;;
55013;SDS011;40916;51.632;5.552;2023-02-25T23:18:59;3.4;;;12.3;;
55013;SDS011;40916;51.632;5.552;2023-02-25T23:23:59;4;;;10.3;;
55013;SDS011;40916;51.632;5.552;2023-02-25T23:29:00;3.8;;;12.5;;
55013;SDS011;40916;51.632;5.552;2023-02-25T23:33:59;3.4;;;15.8;;
55013;SDS011;40916;51.632;5.552;2023-02-25T23:38:58;3.8;;;14.4;;
55013;SDS011;40916;51.632;5.552;2023-02-25T23:43:58;4.4;;;18.7;;
55013;SDS011;40916;51.632;5.552;2023-02-25T23:48:59;3.9;;;13.5;;
55013;SDS011;40916;51.632;5.552;2023-02-25T23:53:59;4.1;;;16.7;;
55013;SDS011;40916;51.632;5.552;2023-02-25T23:58:58;4.6;;;19.3;;
